sensor_id;sensor_type;location;lat;lon;timestamp;P1;durP1;ratioP1;P2;durP2;ratioP2
34007;SDS011;41085;51.594;7.138;2022-12-29T00:02:26;0.20;;;0.10;;
34007;SDS011;41085;51.594;7.138;2022-12-29T00:06:27;1.80;;;0.10;;
34007;SDS011;41085;51.594;7.138;2022-12-29T00:10:28;100.22;;;33.53;;
34007;SDS011;41085;51.594;7.138;2022-12-29T00:14:28;41.03;;;17.73;;
34007;SDS011;41085;51.594;7.138;2022-12-29T00:18:47;246.20;;;96.65;;
34007;SDS011;41085;51.594;7.138;2022-12-29T00:22:48;248.03;;;106.20;;
34007;SDS011;41085;51.594;7.138;2022-12-29T00:27:20;203.50;;;80.77;;
34007;SDS011;41085;51.594;7.138;2022-12-29T00:31:40;188.97;;;76.27;;
34007;SDS011;41085;51.594;7.138;2022-12-29T00:40:32;141.25;;;60.53;;
34007;SDS011;41085;51.594;7.138;2022-12-29T00:44:51;114.57;;;50.47;;
34007;SDS011;41085;51.594;7.138;2022-12-29T00:48:52;113.40;;;47.40;;
34007;SDS011;41085;51.594;7.138;2022-12-29T00:53:11;100.43;;;40.15;;
34007;SDS011;41085;51.594;7.138;2022-12-29T00:57:11;97.53;;;39.93;;
34007;SDS011;41085;51.594;7.138;2022-12-29T01:01:12;84.47;;;39.03;;
34007;SDS011;41085;51.594;7.138;2022-12-29T01:05:13;88.07;;;34.87;;
34007;SDS011;41085;51.594;7.138;2022-12-29T01:09:13;76.87;;;35.50;;
34007;SDS011;41085;51.594;7.138;2022-12-29T01:13:32;72.00;;;33.67;;
34007;SDS011;41085;51.594;7.138;2022-12-29T01:17:34;64.28;;;30.50;;
34007;SDS011;41085;51.594;7.138;2022-12-29T01:21:35;76.03;;;32.33;;
34007;SDS011;41085;51.594;7.138;2022-12-29T01:25:35;70.67;;;31.07;;
34007;SDS011;41085;51.594;7.138;2022-12-29T01:29:36;75.37;;;28.60;;
34007;SDS011;41085;51.594;7.138;2022-12-29T01:33:37;58.00;;;27.77;;
34007;SDS011;41085;51.594;7.138;2022-12-29T01:37:38;67.90;;;27.08;;
34007;SDS011;41085;51.594;7.138;2022-12-29T01:41:38;54.53;;;25.20;;
34007;SDS011;41085;51.594;7.138;2022-12-29T01:45:41;54.13;;;23.40;;
34007;SDS011;41085;51.594;7.138;2022-12-29T01:49:45;54.30;;;25.77;;
34007;SDS011;41085;51.594;7.138;2022-12-29T01:53:46;50.55;;;23.48;;
34007;SDS011;41085;51.594;7.138;2022-12-29T01:57:47;45.27;;;18.83;;
34007;SDS011;41085;51.594;7.138;2022-12-29T02:01:51;41.67;;;18.73;;
34007;SDS011;41085;51.594;7.138;2022-12-29T02:05:56;35.23;;;16.53;;
34007;SDS011;41085;51.594;7.138;2022-12-29T02:10:02;24.10;;;13.85;;
34007;SDS011;41085;51.594;7.138;2022-12-29T02:14:10;26.42;;;14.27;;
34007;SDS011;41085;51.594;7.138;2022-12-29T02:36:09;33.33;;;18.02;;
34007;SDS011;41085;51.594;7.138;2022-12-29T02:40:32;29.20;;;15.27;;
34007;SDS011;41085;51.594;7.138;2022-12-29T02:53:08;32.13;;;14.32;;
34007;SDS011;41085;51.594;7.138;2022-12-29T03:14:47;18.42;;;11.50;;
34007;SDS011;41085;51.594;7.138;2022-12-29T03:19:15;20.27;;;11.30;;
34007;SDS011;41085;51.594;7.138;2022-12-29T03:23:23;18.87;;;10.30;;
34007;SDS011;41085;51.594;7.138;2022-12-29T03:27:27;21.00;;;10.23;;
34007;SDS011;41085;51.594;7.138;2022-12-29T03:31:30;14.55;;;9.30;;
34007;SDS011;41085;51.594;7.138;2022-12-29T03:35:31;11.17;;;8.60;;
34007;SDS011;41085;51.594;7.138;2022-12-29T03:39:36;16.93;;;8.03;;
34007;SDS011;41085;51.594;7.138;2022-12-29T03:43:38;14.93;;;7.53;;
34007;SDS011;41085;51.594;7.138;2022-12-29T03:47:40;10.77;;;7.68;;
34007;SDS011;41085;51.594;7.138;2022-12-29T03:51:40;12.37;;;7.60;;
34007;SDS011;41085;51.594;7.138;2022-12-29T03:55:41;10.93;;;7.20;;
34007;SDS011;41085;51.594;7.138;2022-12-29T03:59:42;12.07;;;5.93;;
34007;SDS011;41085;51.594;7.138;2022-12-29T04:03:42;16.70;;;6.25;;
34007;SDS011;41085;51.594;7.138;2022-12-29T04:07:43;13.70;;;6.17;;
34007;SDS011;41085;51.594;7.138;2022-12-29T04:11:43;11.67;;;5.57;;
34007;SDS011;41085;51.594;7.138;2022-12-29T04:15:44;12.13;;;6.10;;
34007;SDS011;41085;51.594;7.138;2022-12-29T04:19:45;9.13;;;5.60;;
34007;SDS011;41085;51.594;7.138;2022-12-29T04:23:45;10.40;;;4.63;;
34007;SDS011;41085;51.594;7.138;2022-12-29T04:27:46;9.68;;;4.95;;
34007;SDS011;41085;51.594;7.138;2022-12-29T04:31:46;4.73;;;3.63;;
34007;SDS011;41085;51.594;7.138;2022-12-29T04:35:47;8.43;;;4.47;;
34007;SDS011;41085;51.594;7.138;2022-12-29T04:39:48;5.85;;;3.95;;
34007;SDS011;41085;51.594;7.138;2022-12-29T04:43:49;7.90;;;4.23;;
34007;SDS011;41085;51.594;7.138;2022-12-29T04:47:49;10.00;;;3.85;;
34007;SDS011;41085;51.594;7.138;2022-12-29T04:51:50;5.57;;;3.37;;
34007;SDS011;41085;51.594;7.138;2022-12-29T04:55:51;4.30;;;3.13;;
34007;SDS011;41085;51.594;7.138;2022-12-29T04:59:52;5.38;;;3.78;;
34007;SDS011;41085;51.594;7.138;2022-12-29T05:03:53;3.87;;;3.37;;
34007;SDS011;41085;51.594;7.138;2022-12-29T19:07:20;0.20;;;0.00;;
34007;SDS011;41085;51.594;7.138;2022-12-29T19:11:21;0.10;;;0.10;;
34007;SDS011;41085;51.594;7.138;2022-12-29T19:15:24;0.00;;;0.00;;
34007;SDS011;41085;51.594;7.138;2022-12-29T19:19:26;0.00;;;0.00;;
34007;SDS011;41085;51.594;7.138;2022-12-29T19:23:27;0.00;;;0.00;;
34007;SDS011;41085;51.594;7.138;2022-12-29T19:27:27;0.00;;;0.00;;
34007;SDS011;41085;51.594;7.138;2022-12-29T19:31:28;0.00;;;0.00;;
34007;SDS011;41085;51.594;7.138;2022-12-29T19:35:29;0.30;;;0.10;;
34007;SDS011;41085;51.594;7.138;2022-12-29T19:39:29;0.00;;;0.00;;
34007;SDS011;41085;51.594;7.138;2022-12-29T19:43:30;0.40;;;0.10;;
34007;SDS011;41085;51.594;7.138;2022-12-29T19:47:31;0.30;;;0.10;;
34007;SDS011;41085;51.594;7.138;2022-12-29T19:51:32;0.80;;;0.10;;
34007;SDS011;41085;51.594;7.138;2022-12-29T19:55:33;0.00;;;0.00;;
34007;SDS011;41085;51.594;7.138;2022-12-29T19:59:33;0.10;;;0.10;;
34007;SDS011;41085;51.594;7.138;2022-12-29T20:03:34;0.50;;;0.00;;
34007;SDS011;41085;51.594;7.138;2022-12-29T20:07:35;0.08;;;0.05;;
34007;SDS011;41085;51.594;7.138;2022-12-29T20:11:36;0.13;;;0.03;;
34007;SDS011;41085;51.594;7.138;2022-12-29T20:15:41;0.00;;;0.00;;
34007;SDS011;41085;51.594;7.138;2022-12-29T20:19:42;0.05;;;0.00;;
34007;SDS011;41085;51.594;7.138;2022-12-29T20:23:45;0.00;;;0.00;;
34007;SDS011;41085;51.594;7.138;2022-12-29T20:27:47;0.10;;;0.00;;
34007;SDS011;41085;51.594;7.138;2022-12-29T20:31:47;0.00;;;0.00;;
34007;SDS011;41085;51.594;7.138;2022-12-29T20:35:48;0.10;;;0.00;;
34007;SDS011;41085;51.594;7.138;2022-12-29T20:39:49;0.00;;;0.00;;
34007;SDS011;41085;51.594;7.138;2022-12-29T20:43:50;0.05;;;0.05;;
34007;SDS011;41085;51.594;7.138;2022-12-29T20:47:54;0.10;;;0.03;;
34007;SDS011;41085;51.594;7.138;2022-12-29T20:51:55;0.00;;;0.00;;
34007;SDS011;41085;51.594;7.138;2022-12-29T20:55:59;0.00;;;0.00;;
34007;SDS011;41085;51.594;7.138;2022-12-29T21:00:04;0.30;;;0.10;;
34007;SDS011;41085;51.594;7.138;2022-12-29T21:04:05;0.10;;;0.10;;
34007;SDS011;41085;51.594;7.138;2022-12-29T21:08:06;1.20;;;0.20;;
34007;SDS011;41085;51.594;7.138;2022-12-29T21:12:07;0.10;;;0.00;;
34007;SDS011;41085;51.594;7.138;2022-12-29T21:16:08;0.00;;;0.00;;
34007;SDS011;41085;51.594;7.138;2022-12-29T21:20:11;1.30;;;0.10;;
34007;SDS011;41085;51.594;7.138;2022-12-29T21:24:28;0.20;;;0.10;;
34007;SDS011;41085;51.594;7.138;2022-12-29T21:28:29;3.50;;;0.10;;
34007;SDS011;41085;51.594;7.138;2022-12-29T21:32:29;0.10;;;0.00;;
34007;SDS011;41085;51.594;7.138;2022-12-29T21:36:30;1.07;;;0.10;;
34007;SDS011;41085;51.594;7.138;2022-12-29T21:40:35;0.40;;;0.10;;
34007;SDS011;41085;51.594;7.138;2022-12-29T21:44:37;0.40;;;0.05;;
34007;SDS011;41085;51.594;7.138;2022-12-29T21:48:56;3.20;;;0.10;;
34007;SDS011;41085;51.594;7.138;2022-12-29T21:52:56;0.20;;;0.10;;
34007;SDS011;41085;51.594;7.138;2022-12-29T21:56:57;1.60;;;0.20;;
34007;SDS011;41085;51.594;7.138;2022-12-29T22:00:58;0.10;;;0.00;;
34007;SDS011;41085;51.594;7.138;2022-12-29T22:05:17;0.10;;;0.00;;
34007;SDS011;41085;51.594;7.138;2022-12-29T22:09:36;0.10;;;0.00;;
34007;SDS011;41085;51.594;7.138;2022-12-29T22:13:55;0.00;;;0.00;;
34007;SDS011;41085;51.594;7.138;2022-12-29T22:17:57;0.10;;;0.10;;
34007;SDS011;41085;51.594;7.138;2022-12-29T22:21:58;0.20;;;0.10;;
34007;SDS011;41085;51.594;7.138;2022-12-29T22:26:02;0.00;;;0.00;;
34007;SDS011;41085;51.594;7.138;2022-12-29T22:30:04;0.00;;;0.00;;
34007;SDS011;41085;51.594;7.138;2022-12-29T22:34:05;0.00;;;0.00;;
34007;SDS011;41085;51.594;7.138;2022-12-29T22:38:06;2.40;;;0.08;;
34007;SDS011;41085;51.594;7.138;2022-12-29T22:42:07;0.03;;;0.03;;
34007;SDS011;41085;51.594;7.138;2022-12-29T22:46:08;1.10;;;0.10;;
34007;SDS011;41085;51.594;7.138;2022-12-29T22:50:08;0.00;;;0.00;;
34007;SDS011;41085;51.594;7.138;2022-12-29T22:54:09;0.10;;;0.00;;
34007;SDS011;41085;51.594;7.138;2022-12-29T22:58:09;0.10;;;0.00;;
34007;SDS011;41085;51.594;7.138;2022-12-29T23:02:10;0.00;;;0.00;;
34007;SDS011;41085;51.594;7.138;2022-12-29T23:06:11;0.90;;;0.10;;
34007;SDS011;41085;51.594;7.138;2022-12-29T23:10:13;0.30;;;0.10;;
34007;SDS011;41085;51.594;7.138;2022-12-29T23:14:14;0.10;;;0.00;;
34007;SDS011;41085;51.594;7.138;2022-12-29T23:18:16;0.17;;;0.10;;
34007;SDS011;41085;51.594;7.138;2022-12-29T23:22:17;0.10;;;0.10;;
34007;SDS011;41085;51.594;7.138;2022-12-29T23:26:18;0.30;;;0.10;;
34007;SDS011;41085;51.594;7.138;2022-12-29T23:30:20;0.10;;;0.10;;
34007;SDS011;41085;51.594;7.138;2022-12-29T23:34:20;0.03;;;0.03;;
34007;SDS011;41085;51.594;7.138;2022-12-29T23:38:21;0.00;;;0.00;;
34007;SDS011;41085;51.594;7.138;2022-12-29T23:42:21;1.90;;;0.10;;
34007;SDS011;41085;51.594;7.138;2022-12-29T23:46:26;0.47;;;0.00;;
34007;SDS011;41085;51.594;7.138;2022-12-29T23:50:28;0.20;;;0.00;;
34007;SDS011;41085;51.594;7.138;2022-12-29T23:54:28;1.10;;;0.10;;
34007;SDS011;41085;51.594;7.138;2022-12-29T23:58:29;0.03;;;0.00;;
